Time;durP1;ratioP1;P1;durP2;ratioP2;P2;SDS_P1;SDS_P2;PMS_P1;PMS_P2;Temp;Humidity;BMP_temperature;BMP_pressure;BME280_temperature;BME280_humidity;BME280_pressure;Samples;Min_cycle;Max_cycle;Signal;HPM_P1;HPM_P2
2023/12/05 00:01:44;;;;;;;19.70;11.48;;;;;;;;;;5041310;28;20035;-63
2023/12/05 00:04:09;;;;;;;21.23;11.48;;;;;;;;;;5036349;28;20056;-63
2023/12/05 00:06:36;;;;;;;17.90;11.07;;;;;;;;;;5050542;28;20043;-63
2023/12/05 00:09:03;;;;;;;19.63;11.52;;;;;;;;;;5030530;28;20055;-64
2023/12/05 00:11:28;;;;;;;19.42;11.57;;;;;;;;;;5045472;28;20037;-64
2023/12/05 00:13:54;;;;;;;19.73;11.10;;;;;;;;;;5025938;28;20033;-63
2023/12/05 00:16:20;;;;;;;17.63;10.45;;;;;;;;;;5052248;28;20029;-64
2023/12/05 00:18:49;;;;;;;20.55;11.57;;;;;;;;;;5049956;28;20193;-63
2023/12/05 00:21:15;;;;;;;20.23;11.52;;;;;;;;;;5049435;28;20045;-64
2023/12/05 00:23:40;;;;;;;21.52;11.10;;;;;;;;;;5045816;28;20036;-64
2023/12/05 00:26:06;;;;;;;20.60;10.82;;;;;;;;;;5044662;28;20070;-63
2023/12/05 00:28:31;;;;;;;20.70;11.27;;;;;;;;;;5044347;28;20086;-64
2023/12/05 00:30:57;;;;;;;20.52;10.68;;;;;;;;;;5041577;28;20491;-64
2023/12/05 00:33:22;;;;;;;20.73;11.20;;;;;;;;;;5034048;28;20037;-65
2023/12/05 00:35:47;;;;;;;20.02;11.02;;;;;;;;;;5012432;28;20033;-64
2023/12/05 00:38:13;;;;;;;19.45;11.93;;;;;;;;;;5045864;28;20041;-64
2023/12/05 00:40:38;;;;;;;18.40;11.18;;;;;;;;;;5046383;28;20046;-64
2023/12/05 00:43:04;;;;;;;22.17;11.43;;;;;;;;;;5044352;28;20174;-64
2023/12/05 00:45:29;;;;;;;22.08;12.30;;;;;;;;;;5050109;28;20033;-64
2023/12/05 00:47:54;;;;;;;21.00;11.85;;;;;;;;;;5050183;28;20029;-64
2023/12/05 00:50:20;;;;;;;22.98;12.02;;;;;;;;;;5049799;28;20032;-64
2023/12/05 00:52:46;;;;;;;21.95;12.32;;;;;;;;;;5041311;28;20744;-64
2023/12/05 00:55:11;;;;;;;21.05;11.77;;;;;;;;;;5041642;28;20376;-64
2023/12/05 00:57:37;;;;;;;21.83;11.32;;;;;;;;;;5044580;28;20032;-65
2023/12/05 01:00:05;;;;;;;19.55;11.52;;;;;;;;;;5050169;28;20364;-64
2023/12/05 01:02:30;;;;;;;19.80;11.70;;;;;;;;;;5033033;28;20032;-63
2023/12/05 01:04:55;;;;;;;19.90;11.32;;;;;;;;;;5038168;28;20442;-64
2023/12/05 01:07:21;;;;;;;21.88;11.50;;;;;;;;;;5050069;28;20040;-65
2023/12/05 01:09:47;;;;;;;18.25;11.10;;;;;;;;;;5051583;28;20029;-64
2023/12/05 01:12:12;;;;;;;20.05;11.43;;;;;;;;;;5032491;28;20060;-66
2023/12/05 01:14:38;;;;;;;20.15;11.73;;;;;;;;;;5040850;28;20507;-64
2023/12/05 01:17:03;;;;;;;22.42;11.55;;;;;;;;;;5049034;28;20029;-64
2023/12/05 01:19:29;;;;;;;19.45;11.32;;;;;;;;;;5051564;28;20049;-63
2023/12/05 01:21:54;;;;;;;20.25;11.35;;;;;;;;;;5050747;28;20076;-65
2023/12/05 01:24:20;;;;;;;19.65;11.02;;;;;;;;;;5032609;28;20148;-64
2023/12/05 01:26:45;;;;;;;19.55;11.40;;;;;;;;;;5048658;28;20029;-64
2023/12/05 01:29:11;;;;;;;21.33;11.88;;;;;;;;;;5044416;28;20471;-64
2023/12/05 01:31:36;;;;;;;19.33;11.00;;;;;;;;;;5044721;28;20065;-65
2023/12/05 01:34:01;;;;;;;22.05;12.00;;;;;;;;;;5034053;28;20025;-65
2023/12/05 01:36:27;;;;;;;19.27;10.48;;;;;;;;;;5029768;28;20471;-65
2023/12/05 01:38:53;;;;;;;21.83;11.77;;;;;;;;;;5024450;28;20487;-65
2023/12/05 01:41:29;;;;;;;20.45;11.40;;;;;;;;;;5043057;28;20059;-65
2023/12/05 01:43:55;;;;;;;22.00;11.50;;;;;;;;;;5045883;28;20029;-64
2023/12/05 01:46:21;;;;;;;19.23;10.80;;;;;;;;;;5049561;28;20047;-64
2023/12/05 01:48:47;;;;;;;20.27;10.82;;;;;;;;;;5051065;28;20025;-64
2023/12/05 01:51:14;;;;;;;19.73;11.30;;;;;;;;;;5044518;28;20055;-64
2023/12/05 01:53:41;;;;;;;19.10;10.88;;;;;;;;;;5033553;28;20025;-64
2023/12/05 01:56:10;;;;;;;19.00;11.00;;;;;;;;;;5015207;28;20049;-63
2023/12/05 01:58:37;;;;;;;19.98;11.75;;;;;;;;;;5050852;28;20035;-66
2023/12/05 02:01:04;;;;;;;19.73;10.63;;;;;;;;;;5047972;28;20107;-64
2023/12/05 02:03:33;;;;;;;16.85;10.45;;;;;;;;;;5047780;28;20430;-64
2023/12/05 02:05:59;;;;;;;18.23;11.13;;;;;;;;;;5044534;28;20040;-64
2023/12/05 02:08:29;;;;;;;17.85;10.65;;;;;;;;;;5051282;28;20094;-64
2023/12/05 02:10:55;;;;;;;18.65;10.88;;;;;;;;;;5042748;28;20078;-64
2023/12/05 02:13:20;;;;;;;17.17;10.07;;;;;;;;;;5040517;28;20029;-64
2023/12/05 02:15:53;;;;;;;19.38;10.60;;;;;;;;;;5047392;28;20087;-64
2023/12/05 02:18:25;;;;;;;16.92;10.32;;;;;;;;;;5051645;28;20040;-64
2023/12/05 02:20:59;;;;;;;18.77;10.73;;;;;;;;;;5050667;28;20076;-65
2023/12/05 02:23:37;;;;;;;18.85;10.57;;;;;;;;;;5040488;28;20025;-66
2023/12/05 02:26:23;;;;;;;19.45;10.40;;;;;;;;;;5027404;28;20507;-64
2023/12/05 02:28:49;;;;;;;18.23;10.55;;;;;;;;;;5031149;28;20037;-64
2023/12/05 02:31:15;;;;;;;18.98;10.73;;;;;;;;;;5046106;28;20029;-66
2023/12/05 02:33:40;;;;;;;17.05;10.35;;;;;;;;;;5036887;28;20082;-65
2023/12/05 02:36:18;;;;;;;17.52;10.98;;;;;;;;;;5049983;28;20037;-66
2023/12/05 02:39:12;;;;;;;16.58;10.18;;;;;;;;;;5033645;28;20030;-67
2023/12/05 02:41:41;;;;;;;16.23;9.95;;;;;;;;;;5030441;28;20037;-65
2023/12/05 02:44:11;;;;;;;21.08;10.65;;;;;;;;;;5039581;28;20394;-66
2023/12/05 02:46:40;;;;;;;18.42;10.73;;;;;;;;;;5048060;28;20063;-64
2023/12/05 02:49:06;;;;;;;17.17;10.75;;;;;;;;;;5046817;28;20107;-65
2023/12/05 02:51:32;;;;;;;18.42;10.60;;;;;;;;;;5024090;28;20030;-66
2023/12/05 02:54:01;;;;;;;17.60;10.52;;;;;;;;;;5014587;28;20038;-66
2023/12/05 02:56:27;;;;;;;17.90;10.52;;;;;;;;;;5024361;28;20079;-66
2023/12/05 02:58:53;;;;;;;20.02;10.15;;;;;;;;;;5028819;28;20025;-65
2023/12/05 03:01:18;;;;;;;17.25;9.98;;;;;;;;;;5039467;28;20034;-65
2023/12/05 03:03:43;;;;;;;17.02;10.23;;;;;;;;;;5036094;28;20464;-67
2023/12/05 03:06:09;;;;;;;17.35;9.75;;;;;;;;;;5051907;28;20025;-66
2023/12/05 03:08:35;;;;;;;17.95;10.43;;;;;;;;;;5052152;28;20422;-63
2023/12/05 03:11:00;;;;;;;19.25;10.05;;;;;;;;;;5048254;28;20061;-65
2023/12/05 03:13:25;;;;;;;15.90;9.93;;;;;;;;;;5035224;28;20131;-66
2023/12/05 03:15:51;;;;;;;16.92;10.02;;;;;;;;;;5045752;28;20029;-65
2023/12/05 03:18:16;;;;;;;15.90;9.68;;;;;;;;;;5050049;28;20571;-64
2023/12/05 03:20:41;;;;;;;17.30;10.15;;;;;;;;;;5049798;28;20072;-64
2023/12/05 03:23:07;;;;;;;15.80;9.88;;;;;;;;;;5050411;28;20047;-66
2023/12/05 03:25:32;;;;;;;17.40;9.68;;;;;;;;;;5048974;28;20432;-66
2023/12/05 03:27:58;;;;;;;20.17;9.98;;;;;;;;;;5051211;28;20136;-65
2023/12/05 03:30:23;;;;;;;17.67;10.32;;;;;;;;;;5047689;28;20969;-65
2023/12/05 03:32:49;;;;;;;17.75;10.35;;;;;;;;;;5036316;28;20033;-65
2023/12/05 03:35:14;;;;;;;17.52;9.80;;;;;;;;;;5054205;28;20375;-65
2023/12/05 03:37:39;;;;;;;19.85;10.60;;;;;;;;;;5042559;28;20071;-63
2023/12/05 03:40:06;;;;;;;20.85;10.55;;;;;;;;;;5050782;28;20382;-65
2023/12/05 03:42:31;;;;;;;17.40;10.57;;;;;;;;;;5032730;28;20247;-64
2023/12/05 03:44:56;;;;;;;19.75;11.60;;;;;;;;;;5038553;28;20839;-64
2023/12/05 03:47:22;;;;;;;18.08;10.82;;;;;;;;;;5050249;28;20131;-64
2023/12/05 03:49:47;;;;;;;20.10;10.98;;;;;;;;;;5048082;28;20426;-64
2023/12/05 03:52:13;;;;;;;18.88;11.52;;;;;;;;;;5050782;28;20039;-63
2023/12/05 03:54:38;;;;;;;19.48;11.43;;;;;;;;;;5053472;28;20035;-63
2023/12/05 03:57:04;;;;;;;20.15;11.48;;;;;;;;;;5053662;28;20025;-64
2023/12/05 03:59:29;;;;;;;18.75;11.40;;;;;;;;;;5026522;28;20387;-65
2023/12/05 04:01:54;;;;;;;17.95;11.15;;;;;;;;;;5029966;28;20069;-64
2023/12/05 04:04:20;;;;;;;19.60;11.40;;;;;;;;;;5031807;28;20034;-64
2023/12/05 04:06:45;;;;;;;18.33;11.13;;;;;;;;;;5053175;28;20031;-64
2023/12/05 04:09:10;;;;;;;19.17;11.90;;;;;;;;;;5049906;28;20039;-65
2023/12/05 04:11:36;;;;;;;20.73;11.88;;;;;;;;;;5050705;28;20472;-64
2023/12/05 04:14:01;;;;;;;20.55;11.32;;;;;;;;;;5033908;28;20041;-64
2023/12/05 04:16:27;;;;;;;19.80;10.93;;;;;;;;;;5045105;28;20328;-65
2023/12/05 04:18:53;;;;;;;18.88;11.07;;;;;;;;;;5043788;28;20051;-65
2023/12/05 04:21:19;;;;;;;18.65;10.00;;;;;;;;;;5053279;28;20441;-65
2023/12/05 04:23:45;;;;;;;21.02;10.75;;;;;;;;;;5048842;28;20542;-64
2023/12/05 04:26:19;;;;;;;18.30;10.90;;;;;;;;;;5047612;28;20399;-64
2023/12/05 04:28:45;;;;;;;18.65;11.27;;;;;;;;;;5016215;28;20056;-64
2023/12/05 04:31:11;;;;;;;17.08;10.48;;;;;;;;;;5051769;28;20029;-65
2023/12/05 04:33:39;;;;;;;18.00;10.23;;;;;;;;;;5049430;28;20036;-64
2023/12/05 04:36:05;;;;;;;19.85;10.98;;;;;;;;;;5041785;28;20171;-64
2023/12/05 04:38:30;;;;;;;17.58;10.27;;;;;;;;;;5030057;28;20960;-63
2023/12/05 04:40:56;;;;;;;19.27;10.77;;;;;;;;;;5049843;28;20029;-64
2023/12/05 04:43:21;;;;;;;18.42;10.70;;;;;;;;;;5053117;28;20448;-64
2023/12/05 04:45:46;;;;;;;18.33;10.45;;;;;;;;;;5039766;28;20030;-63
2023/12/05 04:48:16;;;;;;;19.00;10.95;;;;;;;;;;5052712;28;20029;-65
2023/12/05 04:50:41;;;;;;;18.58;10.32;;;;;;;;;;5025487;28;20045;-62
2023/12/05 04:53:06;;;;;;;19.45;10.43;;;;;;;;;;5048640;28;20032;-66
2023/12/05 04:55:32;;;;;;;18.67;10.98;;;;;;;;;;5050639;28;20067;-65
2023/12/05 04:57:57;;;;;;;16.50;9.60;;;;;;;;;;5027900;28;20029;-65
2023/12/05 05:00:22;;;;;;;17.45;10.13;;;;;;;;;;5050107;28;20060;-64
2023/12/05 05:02:48;;;;;;;15.98;9.13;;;;;;;;;;5028905;28;20036;-63
2023/12/05 05:05:13;;;;;;;16.00;9.45;;;;;;;;;;5045266;28;20083;-64
2023/12/05 05:07:39;;;;;;;16.77;9.68;;;;;;;;;;5053010;28;20036;-64
2023/12/05 05:10:05;;;;;;;16.75;9.50;;;;;;;;;;5048123;28;20036;-64
2023/12/05 05:12:30;;;;;;;17.98;9.80;;;;;;;;;;5047482;28;20042;-64
2023/12/05 05:14:56;;;;;;;16.75;10.43;;;;;;;;;;5036682;28;20037;-64
2023/12/05 05:17:22;;;;;;;17.17;9.98;;;;;;;;;;5040168;28;20416;-64
2023/12/05 05:19:47;;;;;;;16.20;9.90;;;;;;;;;;5046475;28;20391;-63
2023/12/05 05:22:13;;;;;;;19.20;10.02;;;;;;;;;;5051097;28;20029;-65
2023/12/05 05:24:38;;;;;;;17.67;9.85;;;;;;;;;;5046427;28;20030;-64
2023/12/05 05:27:04;;;;;;;18.20;10.18;;;;;;;;;;5047120;28;20537;-64
2023/12/05 05:29:29;;;;;;;16.63;10.40;;;;;;;;;;5043692;28;20041;-64
2023/12/05 05:31:54;;;;;;;21.58;10.02;;;;;;;;;;5049754;28;20066;-63
2023/12/05 05:34:20;;;;;;;18.52;9.57;;;;;;;;;;5038788;28;20045;-64
2023/12/05 05:36:45;;;;;;;17.08;9.40;;;;;;;;;;5048178;28;20033;-62
2023/12/05 05:39:11;;;;;;;19.65;10.30;;;;;;;;;;5043105;28;20099;-63
2023/12/05 05:41:36;;;;;;;17.80;10.18;;;;;;;;;;5047499;28;20151;-65
2023/12/05 05:44:01;;;;;;;19.27;10.52;;;;;;;;;;5051364;28;20029;-64
2023/12/05 05:46:27;;;;;;;21.83;10.63;;;;;;;;;;5043992;28;20033;-64
2023/12/05 05:48:52;;;;;;;18.90;10.65;;;;;;;;;;5047878;28;20035;-65
2023/12/05 05:51:17;;;;;;;19.65;10.98;;;;;;;;;;5045512;28;20103;-64
2023/12/05 05:53:43;;;;;;;17.35;10.45;;;;;;;;;;5052319;28;20035;-64
2023/12/05 05:56:09;;;;;;;17.23;10.32;;;;;;;;;;5044934;28;20025;-64
2023/12/05 05:58:34;;;;;;;17.35;10.10;;;;;;;;;;5047204;28;20430;-64
2023/12/05 06:01:00;;;;;;;20.13;10.60;;;;;;;;;;5047063;28;20056;-64
2023/12/05 06:03:28;;;;;;;16.23;9.85;;;;;;;;;;5040191;28;20468;-64
2023/12/05 06:05:53;;;;;;;19.85;10.70;;;;;;;;;;5048624;28;20476;-65
2023/12/05 06:08:19;;;;;;;17.45;10.02;;;;;;;;;;5042098;28;20048;-63
2023/12/05 06:10:45;;;;;;;18.70;9.52;;;;;;;;;;5032774;28;20064;-61
2023/12/05 06:13:10;;;;;;;19.75;10.48;;;;;;;;;;5035086;28;20029;-64
2023/12/05 06:15:35;;;;;;;19.73;10.45;;;;;;;;;;5032679;28;20058;-65
2023/12/05 06:18:01;;;;;;;19.35;11.05;;;;;;;;;;5024039;28;20392;-64
2023/12/05 06:20:26;;;;;;;18.02;10.90;;;;;;;;;;5030266;28;20048;-64
2023/12/05 06:22:52;;;;;;;18.77;10.55;;;;;;;;;;5013926;28;20065;-62
2023/12/05 06:25:17;;;;;;;18.13;10.32;;;;;;;;;;5011821;28;20037;-63
2023/12/05 06:27:44;;;;;;;17.50;9.57;;;;;;;;;;5011847;28;20030;-64
2023/12/05 06:30:10;;;;;;;16.85;10.00;;;;;;;;;;5011010;28;20425;-64
2023/12/05 06:32:36;;;;;;;15.75;9.40;;;;;;;;;;5022464;28;20472;-64
2023/12/05 06:35:01;;;;;;;17.25;10.20;;;;;;;;;;5029081;28;20037;-64
2023/12/05 06:37:27;;;;;;;14.07;8.80;;;;;;;;;;5012854;28;20141;-64
2023/12/05 06:39:52;;;;;;;15.95;9.45;;;;;;;;;;5015153;28;20028;-62
2023/12/05 06:42:18;;;;;;;19.20;9.20;;;;;;;;;;5026108;28;20037;-64
2023/12/05 06:44:43;;;;;;;15.05;8.95;;;;;;;;;;5033924;28;20029;-61
2023/12/05 06:47:09;;;;;;;15.98;9.73;;;;;;;;;;5034521;28;20037;-61
2023/12/05 06:49:34;;;;;;;15.07;8.93;;;;;;;;;;5028811;28;20107;-71
2023/12/05 06:52:01;;;;;;;16.35;9.15;;;;;;;;;;5029707;28;20110;-63
2023/12/05 06:54:26;;;;;;;19.05;9.60;;;;;;;;;;5031923;28;20457;-64
2023/12/05 06:56:51;;;;;;;16.98;9.18;;;;;;;;;;5025432;28;20060;-62
2023/12/05 06:59:17;;;;;;;16.30;8.80;;;;;;;;;;5023246;28;20117;-62
2023/12/05 07:01:42;;;;;;;12.95;8.73;;;;;;;;;;5024606;28;20048;-62
2023/12/05 07:04:08;;;;;;;15.73;9.02;;;;;;;;;;5028814;28;20637;-63
2023/12/05 07:06:33;;;;;;;15.30;8.32;;;;;;;;;;5022937;28;20037;-63
2023/12/05 07:08:59;;;;;;;14.52;8.27;;;;;;;;;;5034446;28;20075;-63
2023/12/05 07:11:25;;;;;;;13.50;8.30;;;;;;;;;;5034748;28;20037;-61
2023/12/05 07:13:51;;;;;;;14.23;8.70;;;;;;;;;;5032453;28;20037;-60
2023/12/05 07:16:17;;;;;;;13.93;8.82;;;;;;;;;;5033039;28;20029;-64
2023/12/05 07:18:42;;;;;;;14.88;8.15;;;;;;;;;;5033338;28;20025;-64
2023/12/05 07:21:08;;;;;;;14.65;8.65;;;;;;;;;;5017640;28;20273;-63
2023/12/05 07:23:34;;;;;;;14.32;8.32;;;;;;;;;;5018360;28;20080;-62
2023/12/05 07:25:59;;;;;;;17.23;8.88;;;;;;;;;;5015830;28;20030;-64
2023/12/05 07:28:25;;;;;;;16.98;8.48;;;;;;;;;;5031332;28;20041;-63
2023/12/05 07:30:50;;;;;;;15.15;7.97;;;;;;;;;;5025717;28;20043;-61
2023/12/05 07:33:16;;;;;;;14.60;7.85;;;;;;;;;;5018829;28;20487;-64
2023/12/05 07:35:42;;;;;;;17.73;8.35;;;;;;;;;;5019864;28;20069;-63
2023/12/05 07:38:07;;;;;;;12.27;7.80;;;;;;;;;;5017599;28;20034;-63
2023/12/05 07:40:33;;;;;;;13.30;7.53;;;;;;;;;;5026310;28;20033;-65
2023/12/05 07:42:58;;;;;;;13.45;7.72;;;;;;;;;;5033038;28;20037;-65
2023/12/05 07:45:24;;;;;;;14.20;7.45;;;;;;;;;;5031331;28;20037;-62
2023/12/05 07:47:49;;;;;;;12.77;7.07;;;;;;;;;;5020040;28;20408;-62
2023/12/05 07:50:14;;;;;;;12.50;7.35;;;;;;;;;;5030172;28;20121;-64
2023/12/05 07:52:40;;;;;;;14.90;7.15;;;;;;;;;;5024419;28;20033;-65
2023/12/05 07:55:06;;;;;;;12.63;7.05;;;;;;;;;;5014489;28;20382;-62
2023/12/05 07:57:31;;;;;;;13.43;7.65;;;;;;;;;;5026212;28;20045;-63
2023/12/05 07:59:57;;;;;;;14.32;7.43;;;;;;;;;;5024061;28;20034;-64
2023/12/05 08:02:22;;;;;;;13.52;8.00;;;;;;;;;;5024059;28;20041;-65
2023/12/05 08:04:48;;;;;;;13.60;7.65;;;;;;;;;;5014093;28;20021;-64
2023/12/05 08:07:13;;;;;;;12.00;7.47;;;;;;;;;;5018168;28;20032;-63
2023/12/05 08:09:39;;;;;;;13.07;7.43;;;;;;;;;;5014330;28;20030;-64
2023/12/05 08:12:05;;;;;;;15.18;7.72;;;;;;;;;;5021382;28;20395;-63
2023/12/05 08:14:30;;;;;;;12.88;7.80;;;;;;;;;;5031139;28;20061;-65
2023/12/05 08:16:55;;;;;;;12.63;7.72;;;;;;;;;;5021303;28;20049;-63
2023/12/05 08:19:21;;;;;;;12.52;7.07;;;;;;;;;;5013997;28;20042;-63
2023/12/05 08:21:46;;;;;;;15.40;7.80;;;;;;;;;;5025719;28;20104;-65
2023/12/05 08:24:12;;;;;;;13.85;7.95;;;;;;;;;;5031028;28;20038;-63
2023/12/05 08:26:37;;;;;;;12.15;7.65;;;;;;;;;;5025149;28;20109;-64
2023/12/05 08:29:02;;;;;;;14.38;7.80;;;;;;;;;;5032761;28;20384;-65
2023/12/05 08:31:28;;;;;;;13.25;8.10;;;;;;;;;;5022864;28;20041;-66
2023/12/05 08:33:53;;;;;;;13.70;8.25;;;;;;;;;;5031095;28;20111;-63
2023/12/05 08:36:19;;;;;;;15.38;8.05;;;;;;;;;;5025029;28;20498;-65
2023/12/05 08:38:44;;;;;;;13.60;7.57;;;;;;;;;;5021482;28;20034;-67
2023/12/05 08:41:16;;;;;;;14.48;8.02;;;;;;;;;;5027555;28;20037;-65
2023/12/05 08:43:41;;;;;;;13.85;7.75;;;;;;;;;;5024410;28;20037;-66
2023/12/05 08:46:07;;;;;;;12.68;7.47;;;;;;;;;;5028940;28;20067;-67
2023/12/05 08:48:32;;;;;;;12.85;7.13;;;;;;;;;;5028331;28;20029;-65
2023/12/05 08:50:58;;;;;;;13.63;7.18;;;;;;;;;;5012973;28;20034;-62
2023/12/05 08:53:23;;;;;;;13.32;7.40;;;;;;;;;;5062436;28;20437;-62
2023/12/05 08:55:48;;;;;;;12.75;7.18;;;;;;;;;;5017171;28;20047;-64
2023/12/05 08:58:14;;;;;;;12.50;7.18;;;;;;;;;;5027211;28;20687;-64
2023/12/05 09:00:39;;;;;;;14.40;7.47;;;;;;;;;;5021059;28;20045;-63
2023/12/05 09:03:05;;;;;;;11.73;6.55;;;;;;;;;;5025165;28;20033;-61
2023/12/05 09:05:30;;;;;;;11.73;6.25;;;;;;;;;;5012836;28;20515;-63
2023/12/05 09:07:56;;;;;;;13.65;7.03;;;;;;;;;;5039924;28;20365;-62
2023/12/05 09:10:22;;;;;;;10.80;6.18;;;;;;;;;;5014252;28;20655;-65
2023/12/05 09:12:47;;;;;;;9.77;5.88;;;;;;;;;;5021584;28;20045;-60
2023/12/05 09:15:13;;;;;;;11.98;5.63;;;;;;;;;;5024293;28;20056;-63
2023/12/05 09:17:38;;;;;;;9.80;5.90;;;;;;;;;;5016796;28;20457;-64
2023/12/05 09:20:04;;;;;;;10.23;5.88;;;;;;;;;;5013735;28;20457;-62
2023/12/05 09:22:29;;;;;;;11.52;5.68;;;;;;;;;;5014639;28;20046;-63
2023/12/05 09:24:55;;;;;;;9.32;5.05;;;;;;;;;;5017759;28;20113;-62
2023/12/05 09:27:20;;;;;;;8.80;4.80;;;;;;;;;;5031705;28;20396;-65
2023/12/05 09:29:46;;;;;;;8.25;4.88;;;;;;;;;;5030205;28;20087;-65
2023/12/05 09:32:11;;;;;;;8.82;4.80;;;;;;;;;;5030773;28;20691;-64
2023/12/05 09:34:37;;;;;;;8.20;4.85;;;;;;;;;;5018194;28;20029;-65
2023/12/05 09:37:02;;;;;;;6.82;4.20;;;;;;;;;;5014850;28;20029;-62
2023/12/05 09:39:29;;;;;;;6.40;4.10;;;;;;;;;;5017805;28;20452;-64
2023/12/05 09:41:57;;;;;;;13.48;4.38;;;;;;;;;;5014303;28;20033;-62
2023/12/05 09:44:25;;;;;;;8.05;4.13;;;;;;;;;;5022967;28;20025;-64
2023/12/05 09:46:54;;;;;;;7.22;3.60;;;;;;;;;;5013458;28;20103;-63
2023/12/05 09:49:26;;;;;;;6.28;3.70;;;;;;;;;;5015835;28;20045;-63
2023/12/05 09:51:51;;;;;;;6.40;3.20;;;;;;;;;;5030053;28;20033;-67
2023/12/05 09:54:17;;;;;;;5.00;3.30;;;;;;;;;;5020224;28;20491;-66
2023/12/05 09:56:44;;;;;;;7.40;3.45;;;;;;;;;;5022371;28;20476;-67
2023/12/05 09:59:13;;;;;;;7.28;3.70;;;;;;;;;;5021360;28;20030;-69
2023/12/05 10:01:41;;;;;;;5.82;3.50;;;;;;;;;;5014218;28;20049;-68
2023/12/05 10:04:10;;;;;;;5.97;3.72;;;;;;;;;;5024787;28;20045;-70
2023/12/05 10:06:36;;;;;;;5.90;3.30;;;;;;;;;;5012361;28;20491;-68
2023/12/05 10:09:02;;;;;;;5.40;3.65;;;;;;;;;;5028758;28;20034;-69
2023/12/05 10:11:30;;;;;;;5.38;3.42;;;;;;;;;;5017853;28;20036;-69
2023/12/05 10:13:57;;;;;;;7.22;3.60;;;;;;;;;;5027856;28;20029;-63
2023/12/05 10:16:24;;;;;;;7.28;3.17;;;;;;;;;;5020687;28;20026;-64
2023/12/05 10:18:53;;;;;;;6.05;3.30;;;;;;;;;;5011867;28;20049;-62
2023/12/05 10:21:19;;;;;;;8.70;4.00;;;;;;;;;;5013257;28;20119;-66
2023/12/05 10:23:44;;;;;;;5.97;3.40;;;;;;;;;;5023487;28;20459;-65
2023/12/05 10:26:10;;;;;;;6.32;3.60;;;;;;;;;;5021980;28;20040;-63
2023/12/05 10:28:50;;;;;;;5.85;3.20;;;;;;;;;;5024634;28;20041;-63
2023/12/05 10:31:16;;;;;;;3.80;2.42;;;;;;;;;;5027089;28;20032;-63
2023/12/05 10:33:42;;;;;;;8.68;3.10;;;;;;;;;;5017248;28;20034;-63
2023/12/05 10:36:14;;;;;;;4.95;2.90;;;;;;;;;;5010966;28;20030;-64
2023/12/05 10:38:43;;;;;;;4.30;2.58;;;;;;;;;;5024465;28;20124;-64
2023/12/05 10:41:09;;;;;;;5.82;2.95;;;;;;;;;;5015829;28;20456;-63
2023/12/05 10:43:34;;;;;;;4.72;2.80;;;;;;;;;;5025131;28;20040;-64
2023/12/05 10:46:03;;;;;;;4.35;2.22;;;;;;;;;;5019418;28;20543;-63
2023/12/05 10:48:30;;;;;;;4.38;2.20;;;;;;;;;;5021069;28;20088;-65
2023/12/05 10:50:56;;;;;;;5.10;2.15;;;;;;;;;;5017499;28;20084;-64
2023/12/05 10:53:22;;;;;;;3.40;2.10;;;;;;;;;;5026051;28;20480;-61
2023/12/05 10:55:48;;;;;;;3.90;2.28;;;;;;;;;;5029617;28;20026;-61
2023/12/05 10:58:14;;;;;;;3.00;2.10;;;;;;;;;;5019677;28;20034;-62
2023/12/05 11:00:40;;;;;;;2.85;2.10;;;;;;;;;;5022458;28;20041;-63
2023/12/05 11:03:06;;;;;;;3.58;2.17;;;;;;;;;;5019048;28;20033;-64
2023/12/05 11:05:33;;;;;;;3.75;2.28;;;;;;;;;;5021030;28;20049;-64
2023/12/05 11:07:59;;;;;;;3.35;2.30;;;;;;;;;;5017292;28;20025;-62
2023/12/05 11:10:26;;;;;;;4.22;2.20;;;;;;;;;;5024515;28;20084;-63
2023/12/05 11:12:52;;;;;;;5.20;2.28;;;;;;;;;;5014000;28;20116;-63
2023/12/05 11:15:28;;;;;;;3.40;1.92;;;;;;;;;;5011222;28;20034;-63
2023/12/05 11:17:59;;;;;;;3.55;2.10;;;;;;;;;;5015896;28;20029;-63
2023/12/05 11:20:47;;;;;;;3.13;2.10;;;;;;;;;;5028565;28;20041;-61
2023/12/05 11:23:33;;;;;;;4.93;2.25;;;;;;;;;;5017700;28;20099;-64
2023/12/05 11:26:07;;;;;;;3.65;2.25;;;;;;;;;;5016717;28;20384;-61
2023/12/05 11:29:13;;;;;;;3.35;2.10;;;;;;;;;;5029760;28;20436;-63
2023/12/05 11:32:20;;;;;;;2.75;2.00;;;;;;;;;;5017949;28;20034;-61
2023/12/05 11:34:48;;;;;;;3.58;2.20;;;;;;;;;;5016060;28;20056;-62
2023/12/05 11:37:33;;;;;;;3.67;2.72;;;;;;;;;;5013614;28;20622;-61
2023/12/05 11:39:59;;;;;;;3.47;1.90;;;;;;;;;;5013968;28;20107;-54
2023/12/05 11:42:24;;;;;;;3.88;2.25;;;;;;;;;;5015207;28;20126;-57
2023/12/05 11:44:50;;;;;;;2.58;1.70;;;;;;;;;;5021508;28;20108;-56
2023/12/05 11:47:24;;;;;;;3.15;1.90;;;;;;;;;;5013903;28;20556;-54
2023/12/05 11:49:53;;;;;;;3.67;1.95;;;;;;;;;;5027167;28;20472;-54
2023/12/05 11:52:20;;;;;;;3.85;1.90;;;;;;;;;;5014128;28;20117;-57
2023/12/05 11:54:51;;;;;;;2.63;1.58;;;;;;;;;;5024379;28;20029;-63
2023/12/05 11:57:18;;;;;;;3.20;1.90;;;;;;;;;;5014292;28;20100;-62
2023/12/05 11:59:50;;;;;;;2.80;2.10;;;;;;;;;;5028797;28;20037;-62
2023/12/05 12:02:35;;;;;;;2.78;1.90;;;;;;;;;;5015056;28;20029;-63
2023/12/05 12:05:11;;;;;;;2.42;1.73;;;;;;;;;;5032780;28;20040;-62
2023/12/05 12:07:56;;;;;;;3.67;1.40;;;;;;;;;;5019404;28;20096;-64
2023/12/05 12:10:22;;;;;;;4.28;1.90;;;;;;;;;;5014209;28;20030;-63
2023/12/05 12:12:49;;;;;;;2.35;1.75;;;;;;;;;;5026150;28;20396;-64
2023/12/05 12:15:15;;;;;;;3.13;1.73;;;;;;;;;;5013265;28;20034;-63
2023/12/05 12:17:44;;;;;;;2.70;1.70;;;;;;;;;;5013062;28;20044;-64
2023/12/05 12:20:14;;;;;;;2.92;1.77;;;;;;;;;;5013293;28;20046;-62
2023/12/05 12:22:41;;;;;;;4.50;1.80;;;;;;;;;;5014426;28;20034;-62
2023/12/05 12:25:11;;;;;;;4.35;1.85;;;;;;;;;;5030876;28;20037;-62
2023/12/05 12:27:38;;;;;;;5.45;1.88;;;;;;;;;;5019488;28;20120;-62
2023/12/05 12:30:08;;;;;;;4.82;2.33;;;;;;;;;;5022459;28;20038;-61
2023/12/05 12:32:35;;;;;;;4.00;2.20;;;;;;;;;;5023532;28;20026;-62
2023/12/05 12:35:01;;;;;;;5.05;2.10;;;;;;;;;;5028138;28;20480;-63
2023/12/05 12:37:27;;;;;;;4.43;1.90;;;;;;;;;;5013724;28;20034;-61
2023/12/05 12:39:53;;;;;;;3.00;1.90;;;;;;;;;;5029122;28;20116;-61
2023/12/05 12:42:18;;;;;;;2.70;1.83;;;;;;;;;;5025998;28;20516;-62
2023/12/05 12:44:44;;;;;;;2.95;2.03;;;;;;;;;;5028242;28;20037;-62
2023/12/05 12:47:12;;;;;;;4.57;1.85;;;;;;;;;;5014790;28;20091;-61
2023/12/05 12:49:37;;;;;;;6.25;3.00;;;;;;;;;;5021148;28;20034;-62
2023/12/05 12:52:03;;;;;;;2.85;1.63;;;;;;;;;;5022487;28;20025;-62
2023/12/05 12:54:28;;;;;;;2.45;1.80;;;;;;;;;;5025425;28;20069;-63
2023/12/05 12:56:54;;;;;;;4.50;1.98;;;;;;;;;;5022686;28;20030;-63
2023/12/05 12:59:19;;;;;;;3.70;2.10;;;;;;;;;;5025884;28;20109;-63
2023/12/05 13:01:45;;;;;;;3.60;1.70;;;;;;;;;;5027587;28;20037;-64
2023/12/05 13:04:11;;;;;;;2.38;1.83;;;;;;;;;;5018602;28;20037;-63
2023/12/05 13:06:38;;;;;;;2.65;1.80;;;;;;;;;;5013132;28;20037;-61
2023/12/05 13:09:11;;;;;;;2.78;1.80;;;;;;;;;;5023990;28;20068;-61
2023/12/05 13:11:37;;;;;;;2.70;1.90;;;;;;;;;;5018743;28;20034;-62
2023/12/05 13:14:14;;;;;;;3.40;2.15;;;;;;;;;;5024892;28;20372;-64
2023/12/05 13:16:41;;;;;;;3.60;2.00;;;;;;;;;;5017142;28;20040;-62
2023/12/05 13:19:19;;;;;;;5.90;2.20;;;;;;;;;;5020215;28;20056;-61
2023/12/05 13:21:45;;;;;;;6.28;2.10;;;;;;;;;;5026300;28;20036;-61
2023/12/05 13:24:10;;;;;;;3.83;2.53;;;;;;;;;;5018255;28;20033;-63
2023/12/05 13:26:37;;;;;;;2.90;2.10;;;;;;;;;;5032083;28;20036;-64
2023/12/05 13:29:03;;;;;;;4.07;2.10;;;;;;;;;;5019165;28;20119;-63
2023/12/05 13:31:29;;;;;;;4.43;2.50;;;;;;;;;;5026381;28;20034;-63
2023/12/05 13:33:55;;;;;;;5.53;2.40;;;;;;;;;;5017588;28;20033;-62
2023/12/05 13:36:22;;;;;;;6.18;2.80;;;;;;;;;;5011725;28;20061;-63
2023/12/05 13:38:48;;;;;;;5.75;2.88;;;;;;;;;;5015771;28;20030;-63
2023/12/05 13:41:13;;;;;;;5.70;2.90;;;;;;;;;;5012995;28;20292;-63
2023/12/05 13:43:39;;;;;;;7.10;3.10;;;;;;;;;;5016030;28;20034;-64
2023/12/05 13:46:05;;;;;;;5.43;3.00;;;;;;;;;;5024565;28;20041;-64
2023/12/05 13:48:31;;;;;;;8.88;3.67;;;;;;;;;;5013812;28;20034;-62
2023/12/05 13:50:56;;;;;;;5.70;3.10;;;;;;;;;;5023631;28;20519;-62
2023/12/05 13:53:23;;;;;;;6.13;3.15;;;;;;;;;;5013903;28;20030;-63
2023/12/05 13:55:48;;;;;;;5.25;3.20;;;;;;;;;;5028037;28;20325;-65
2023/12/05 13:58:14;;;;;;;5.43;3.25;;;;;;;;;;5010903;28;20088;-64
2023/12/05 14:00:39;;;;;;;5.13;3.45;;;;;;;;;;5020122;28;20052;-64
2023/12/05 14:03:05;;;;;;;5.38;3.42;;;;;;;;;;5011854;28;20360;-62
2023/12/05 14:05:30;;;;;;;5.57;3.40;;;;;;;;;;5016752;28;20034;-63
2023/12/05 14:07:55;;;;;;;7.00;3.53;;;;;;;;;;5011373;28;20040;-63
2023/12/05 14:10:21;;;;;;;6.43;3.38;;;;;;;;;;5015753;28;20030;-63
2023/12/05 14:12:46;;;;;;;5.57;3.42;;;;;;;;;;5012382;28;20330;-63
2023/12/05 14:15:11;;;;;;;5.95;3.78;;;;;;;;;;5021915;28;20127;-63
2023/12/05 14:17:37;;;;;;;5.40;3.67;;;;;;;;;;5016026;28;20037;-62
2023/12/05 14:20:06;;;;;;;6.00;3.95;;;;;;;;;;5023258;28;20069;-62
2023/12/05 14:22:34;;;;;;;6.07;4.00;;;;;;;;;;5018417;28;20049;-63
2023/12/05 14:24:59;;;;;;;8.05;3.97;;;;;;;;;;5024060;28;20033;-63
2023/12/05 14:27:25;;;;;;;8.45;4.00;;;;;;;;;;5012000;28;20071;-64